createdAt,value
2022-12-11T00:00:36.910Z,2.25
2022-12-11T00:03:18.784Z,2.30
2022-12-11T00:05:54.353Z,2.00
2022-12-11T00:08:31.139Z,1.60
2022-12-11T00:11:09.385Z,1.88
2022-12-11T00:13:45.466Z,1.98
2022-12-11T00:16:26.692Z,1.67
2022-12-11T00:19:05.125Z,2.20
2022-12-11T00:21:41.267Z,1.60
2022-12-11T00:24:17.256Z,1.60
2022-12-11T00:26:55.413Z,2.00
2022-12-11T00:29:31.918Z,1.80
2022-12-11T00:32:07.934Z,2.00
2022-12-11T00:34:43.541Z,2.03
2022-12-11T00:37:19.462Z,2.10
2022-12-11T00:39:57.337Z,1.77
2022-12-11T00:42:35.260Z,1.88
2022-12-11T00:45:11.911Z,1.83
2022-12-11T00:47:47.998Z,2.00
2022-12-11T00:50:24.486Z,2.17
2022-12-11T00:53:00.969Z,2.22
2022-12-11T00:55:37.114Z,1.80
2022-12-11T00:58:15.420Z,1.92
2022-12-11T01:00:52.785Z,1.95
2022-12-11T01:03:29.619Z,1.65
2022-12-11T01:06:06.622Z,1.77
2022-12-11T01:08:42.786Z,1.90
2022-12-11T01:11:19.071Z,1.80
2022-12-11T01:13:56.701Z,1.88
2022-12-11T01:16:33.043Z,1.58
2022-12-11T01:19:10.083Z,1.60
2022-12-11T01:21:46.173Z,1.52
2022-12-11T01:24:22.496Z,1.60
2022-12-11T01:26:58.187Z,1.50
2022-12-11T01:29:36.807Z,1.60
2022-12-11T01:32:13.501Z,1.55
2022-12-11T01:34:50.465Z,1.83
2022-12-11T01:37:26.224Z,1.38
2022-12-11T01:40:02.553Z,1.60
2022-12-11T01:42:39.835Z,1.40
2022-12-11T01:45:40.363Z,1.30
2022-12-11T01:48:19.542Z,1.48
2022-12-11T01:51:00.267Z,1.30
2022-12-11T01:53:39.217Z,1.30
2022-12-11T01:56:16.047Z,1.27
2022-12-11T01:58:56.917Z,1.60
2022-12-11T02:01:40.231Z,1.15
2022-12-11T02:04:17.663Z,1.40
2022-12-11T02:06:55.832Z,1.60
2022-12-11T02:09:35.222Z,1.60
2022-12-11T02:12:21.447Z,1.50
2022-12-11T02:15:04.514Z,1.42
2022-12-11T02:17:49.090Z,1.70
2022-12-11T02:20:31.341Z,1.58
2022-12-11T02:23:33.293Z,2.10
2022-12-11T02:26:24.566Z,2.03
2022-12-11T02:29:05.885Z,1.70
2022-12-11T02:31:45.705Z,1.73
2022-12-11T02:34:26.558Z,1.80
2022-12-11T02:37:07.411Z,1.77
2022-12-11T02:39:47.069Z,1.88
2022-12-11T02:42:24.477Z,2.00
2022-12-11T02:45:04.585Z,1.73
2022-12-11T02:47:41.905Z,2.00
2022-12-11T02:50:17.790Z,1.73
2022-12-11T02:52:55.233Z,1.67
2022-12-11T02:55:32.328Z,1.70
2022-12-11T02:58:09.776Z,1.98
2022-12-11T03:00:49.228Z,1.70
2022-12-11T03:03:26.152Z,1.67
2022-12-11T03:06:01.973Z,1.70
2022-12-11T03:08:39.372Z,1.80
2022-12-11T03:11:17.364Z,1.65
2022-12-11T03:13:54.199Z,1.60
2022-12-11T03:16:39.232Z,3.28
2022-12-11T03:19:24.027Z,13.13
2022-12-11T03:22:11.597Z,7.03
2022-12-11T03:24:52.112Z,6.25
2022-12-11T03:27:33.361Z,2.78
2022-12-11T03:30:13.249Z,4.68
2022-12-11T03:32:55.912Z,3.03
2022-12-11T03:35:34.881Z,2.60
2022-12-11T03:38:16.947Z,2.70
2022-12-11T03:40:57.004Z,2.30
2022-12-11T03:43:33.716Z,2.60
2022-12-11T03:46:10.975Z,2.60
2022-12-11T03:48:52.145Z,2.10
2022-12-11T03:51:29.864Z,2.33
2022-12-11T03:54:06.727Z,2.10
2022-12-11T03:56:46.828Z,2.00
2022-12-11T03:59:23.217Z,1.98
2022-12-11T04:02:00.043Z,2.20
2022-12-11T04:04:38.407Z,1.95
2022-12-11T04:07:15.110Z,1.85
2022-12-11T04:09:51.539Z,2.08
2022-12-11T04:12:28.087Z,2.10
2022-12-11T04:15:06.949Z,2.25
2022-12-11T04:17:59.236Z,2.17
2022-12-11T04:20:58.390Z,2.10
2022-12-11T04:23:50.735Z,2.33
2022-12-11T04:26:27.649Z,2.00
2022-12-11T04:29:04.910Z,1.98
2022-12-11T04:31:41.451Z,1.90
2022-12-11T04:34:22.178Z,2.20
2022-12-11T04:36:59.561Z,1.70
2022-12-11T04:39:36.056Z,1.65
2022-12-11T04:42:11.899Z,2.05
2022-12-11T04:44:49.496Z,1.77
2022-12-11T04:47:25.228Z,2.10
2022-12-11T04:50:02.186Z,1.77
2022-12-11T04:52:40.619Z,1.70
2022-12-11T04:55:18.031Z,1.95
2022-12-11T04:57:54.654Z,1.60
2022-12-11T05:00:31.924Z,1.80
2022-12-11T05:03:08.467Z,1.85
2022-12-11T05:05:44.586Z,1.80
2022-12-11T05:08:22.539Z,2.08
2022-12-11T05:11:03.552Z,1.90
2022-12-11T05:13:40.842Z,2.00
2022-12-11T05:16:21.242Z,2.10
2022-12-11T05:18:57.659Z,1.77
2022-12-11T05:21:35.316Z,2.10
2022-12-11T05:24:14.756Z,1.92
2022-12-11T05:26:51.699Z,2.08
2022-12-11T05:29:27.032Z,1.80
2022-12-11T05:32:03.838Z,2.30
2022-12-11T05:34:48.679Z,2.67
2022-12-11T05:37:24.804Z,2.15
2022-12-11T05:40:03.040Z,2.13
2022-12-11T05:42:40.314Z,2.40
2022-12-11T05:45:17.103Z,2.28
2022-12-11T05:47:54.689Z,1.95
2022-12-11T05:50:30.124Z,1.80
2022-12-11T05:53:07.310Z,2.75
2022-12-11T05:55:45.238Z,2.30
2022-12-11T05:58:21.775Z,2.00
2022-12-11T06:00:57.478Z,1.85
2022-12-11T06:03:35.551Z,2.38
2022-12-11T06:06:13.225Z,2.35
2022-12-11T06:08:50.812Z,2.40
2022-12-11T06:11:30.811Z,2.40
2022-12-11T06:14:09.348Z,2.35
2022-12-11T06:16:44.866Z,2.58
2022-12-11T06:19:22.393Z,2.50
2022-12-11T06:21:59.467Z,2.40
2022-12-11T06:24:35.832Z,2.72
2022-12-11T06:27:21.082Z,2.58
2022-12-11T06:29:57.966Z,2.83
2022-12-11T06:32:33.904Z,3.40
2022-12-11T06:35:30.776Z,3.40
2022-12-11T06:38:07.331Z,3.03
2022-12-11T06:40:43.299Z,2.53
2022-12-11T06:43:21.136Z,2.67
2022-12-11T06:46:02.094Z,2.95
2022-12-11T06:48:49.057Z,3.38
2022-12-11T06:51:26.643Z,3.33
2022-12-11T06:54:02.580Z,3.00
2022-12-11T06:56:39.618Z,2.88
2022-12-11T07:07:36.495Z,2.95
2022-12-11T07:10:12.654Z,3.20
2022-12-11T07:12:48.728Z,2.90
2022-12-11T07:15:24.678Z,2.80
2022-12-11T07:18:00.109Z,2.83
2022-12-11T07:20:36.547Z,2.65
2022-12-11T07:23:14.227Z,3.10
2022-12-11T07:25:51.041Z,2.78
2022-12-11T07:28:27.813Z,2.83
2022-12-11T07:31:04.451Z,3.08
2022-12-11T07:33:42.591Z,3.70
2022-12-11T07:36:21.754Z,3.08
2022-12-11T07:39:00.218Z,3.00
2022-12-11T07:41:36.997Z,2.75
2022-12-11T07:44:21.608Z,3.17
2022-12-11T07:46:56.972Z,2.83
2022-12-11T07:49:32.741Z,2.85
2022-12-11T07:52:08.905Z,3.10
2022-12-11T07:54:46.664Z,3.20
2022-12-11T07:57:21.938Z,3.08
2022-12-11T07:59:57.202Z,3.10
2022-12-11T08:02:58.041Z,3.05
2022-12-11T08:05:33.801Z,3.50
2022-12-11T08:08:09.132Z,3.10
2022-12-11T08:10:45.683Z,2.80
2022-12-11T08:13:22.195Z,3.40
2022-12-11T08:15:57.313Z,3.65
2022-12-11T08:18:32.277Z,3.42
2022-12-11T08:21:10.746Z,3.65
2022-12-11T08:23:46.759Z,2.95
2022-12-11T08:26:25.202Z,3.58
2022-12-11T08:29:00.581Z,3.55
2022-12-11T08:31:35.898Z,3.65
2022-12-11T08:34:10.945Z,3.20
2022-12-11T08:36:47.470Z,3.10
2022-12-11T08:39:22.610Z,3.03
2022-12-11T08:41:59.795Z,3.00
2022-12-11T08:44:35.830Z,3.30
2022-12-11T08:47:11.650Z,3.42
2022-12-11T08:49:46.763Z,2.90
2022-12-11T08:52:22.463Z,3.35
2022-12-11T08:54:57.595Z,2.70
2022-12-11T08:57:36.067Z,2.83
2022-12-11T09:00:11.863Z,2.92
2022-12-11T09:02:47.094Z,2.65
2022-12-11T09:05:22.480Z,3.33
2022-12-11T09:07:58.893Z,3.30
2022-12-11T09:10:33.898Z,3.15
2022-12-11T09:13:10.426Z,3.05
2022-12-11T09:15:47.539Z,3.20
2022-12-11T09:18:23.200Z,4.10
2022-12-11T09:21:03.999Z,4.30
2022-12-11T09:23:39.968Z,4.13
2022-12-11T09:26:16.117Z,4.53
2022-12-11T09:28:55.536Z,3.72
2022-12-11T09:31:31.687Z,3.90
2022-12-11T09:34:07.597Z,4.20
2022-12-11T09:36:44.474Z,3.38
2022-12-11T09:39:20.856Z,3.30
2022-12-11T09:41:58.751Z,3.47
2022-12-11T09:44:43.495Z,4.03
2022-12-11T09:47:29.621Z,3.83
2022-12-11T09:50:08.556Z,3.78
2022-12-11T09:52:45.584Z,3.35
2022-12-11T09:55:23.299Z,3.35
2022-12-11T09:58:02.087Z,3.97
2022-12-11T10:00:43.315Z,3.72
2022-12-11T10:03:35.673Z,3.70
2022-12-11T10:06:15.776Z,4.07
2022-12-11T10:08:55.603Z,3.40
2022-12-11T10:11:48.287Z,3.67
2022-12-11T10:14:31.821Z,3.88
2022-12-11T10:17:10.956Z,3.67
2022-12-11T10:19:47.682Z,4.15
2022-12-11T10:22:25.792Z,3.45
2022-12-11T10:25:16.817Z,4.07
2022-12-11T10:27:52.631Z,3.80
2022-12-11T10:30:34.318Z,3.90
2022-12-11T10:33:16.985Z,3.45
2022-12-11T10:35:54.175Z,3.40
2022-12-11T10:38:30.584Z,3.80
2022-12-11T10:41:07.738Z,3.90
2022-12-11T10:43:44.017Z,3.88
2022-12-11T10:46:22.146Z,3.55
2022-12-11T10:49:00.369Z,3.50
2022-12-11T10:51:40.829Z,4.22
2022-12-11T10:54:23.714Z,3.95
2022-12-11T10:56:59.947Z,3.95
2022-12-11T10:59:38.872Z,3.88
2022-12-11T11:02:22.822Z,4.25
2022-12-11T11:05:01.318Z,3.97
2022-12-11T11:07:37.053Z,3.97
2022-12-11T11:10:19.336Z,4.57
2022-12-11T11:12:55.745Z,4.45
2022-12-11T11:15:32.361Z,4.35
2022-12-11T11:18:14.849Z,4.40
2022-12-11T11:20:53.809Z,4.45
2022-12-11T11:23:29.945Z,3.90
2022-12-11T11:26:06.149Z,4.60
2022-12-11T11:28:42.220Z,4.43
2022-12-11T11:31:19.588Z,4.28
2022-12-11T11:33:59.782Z,4.20
2022-12-11T11:36:37.485Z,4.13
2022-12-11T11:39:25.365Z,4.82
2022-12-11T11:42:05.664Z,4.50
2022-12-11T11:44:42.785Z,4.45
2022-12-11T11:47:21.136Z,4.90
2022-12-11T11:49:58.531Z,4.50
2022-12-11T11:52:39.106Z,4.22
2022-12-11T11:55:18.755Z,5.15
2022-12-11T11:58:00.848Z,3.92
2022-12-11T12:00:35.991Z,4.40
2022-12-11T12:03:15.961Z,4.20
2022-12-11T12:05:55.500Z,4.70
2022-12-11T12:08:39.486Z,5.15
2022-12-11T12:11:20.668Z,4.28
2022-12-11T12:14:00.657Z,4.97
2022-12-11T12:16:54.074Z,4.45
2022-12-11T12:19:39.934Z,4.80
2022-12-11T12:22:25.038Z,5.07
2022-12-11T12:25:09.262Z,4.82
2022-12-11T12:27:53.013Z,5.25
2022-12-11T12:30:28.296Z,4.90
2022-12-11T12:33:11.823Z,5.22
2022-12-11T12:35:51.510Z,5.78
2022-12-11T12:38:29.901Z,6.25
2022-12-11T12:41:15.766Z,7.20
2022-12-11T12:44:08.031Z,6.18
2022-12-11T12:46:50.864Z,5.70
2022-12-11T12:49:29.852Z,5.78
2022-12-11T12:52:05.724Z,6.13
2022-12-11T12:54:41.000Z,6.20
2022-12-11T12:57:18.813Z,5.60
2022-12-11T12:59:59.721Z,5.80
2022-12-11T13:02:35.763Z,6.88
2022-12-11T13:05:13.343Z,6.40
2022-12-11T13:07:54.692Z,6.82
2022-12-11T13:10:31.270Z,6.38
2022-12-11T13:13:09.668Z,6.30
2022-12-11T13:15:45.603Z,6.28
2022-12-11T13:18:43.835Z,6.20
2022-12-11T13:21:33.656Z,6.15
2022-12-11T13:24:20.932Z,6.05
2022-12-11T13:26:56.426Z,6.00
2022-12-11T13:29:38.198Z,5.97
2022-12-11T13:32:27.186Z,6.32
2022-12-11T13:35:03.858Z,6.28
2022-12-11T13:37:40.565Z,6.10
2022-12-11T13:40:25.415Z,5.93
2022-12-11T13:43:00.931Z,5.43
2022-12-11T13:45:40.938Z,5.90
2022-12-11T13:48:22.105Z,5.53
2022-12-11T13:50:58.893Z,5.45
2022-12-11T13:53:34.834Z,6.20
2022-12-11T13:56:10.686Z,6.03
2022-12-11T13:58:46.161Z,5.60
2022-12-11T14:01:26.161Z,5.40
2022-12-11T14:04:02.650Z,5.38
2022-12-11T14:06:38.619Z,5.40
2022-12-11T14:09:15.013Z,5.30
2022-12-11T14:11:56.425Z,5.53
2022-12-11T14:14:34.876Z,5.43
2022-12-11T14:17:16.381Z,5.95
2022-12-11T14:19:52.772Z,5.45
2022-12-11T14:22:29.778Z,5.53
2022-12-11T14:25:07.854Z,5.28
2022-12-11T14:27:53.244Z,5.20
2022-12-11T14:30:28.866Z,5.47
2022-12-11T14:33:08.264Z,5.45
2022-12-11T14:35:44.783Z,5.38
2022-12-11T14:38:29.089Z,4.70
2022-12-11T14:41:07.005Z,5.32
2022-12-11T14:43:44.804Z,5.60
2022-12-11T14:46:23.416Z,5.00
2022-12-11T14:49:02.932Z,4.53
2022-12-11T14:51:40.800Z,4.93
2022-12-11T14:54:21.692Z,4.53
2022-12-11T14:56:56.989Z,4.60
2022-12-11T14:59:32.916Z,5.13
2022-12-11T15:02:23.163Z,5.53
2022-12-11T15:05:17.011Z,4.63
2022-12-11T15:08:02.311Z,4.70
2022-12-11T15:10:42.889Z,4.63
2022-12-11T15:13:18.636Z,4.60
2022-12-11T15:15:54.672Z,4.97
2022-12-11T15:18:31.573Z,4.40
2022-12-11T15:21:08.676Z,4.45
2022-12-11T15:23:52.956Z,4.10
2022-12-11T15:26:39.750Z,4.13
2022-12-11T15:29:29.634Z,4.35
2022-12-11T15:32:05.559Z,4.47
2022-12-11T15:34:41.307Z,4.47
2022-12-11T15:37:24.330Z,3.92
2022-12-11T15:40:02.056Z,4.93
2022-12-11T15:42:41.410Z,4.40
2022-12-11T15:45:21.565Z,4.68
2022-12-11T15:47:57.456Z,5.05
2022-12-11T15:50:33.507Z,4.00
2022-12-11T15:53:09.349Z,4.60
2022-12-11T15:55:46.825Z,4.30
2022-12-11T15:58:24.792Z,4.43
2022-12-11T16:00:59.652Z,4.72
2022-12-11T16:03:35.385Z,4.65
2022-12-11T16:06:10.620Z,4.03
2022-12-11T16:08:45.745Z,4.78
2022-12-11T16:11:22.283Z,4.30
2022-12-11T16:13:58.384Z,4.47
2022-12-11T16:16:33.606Z,4.45
2022-12-11T16:19:08.578Z,4.50
2022-12-11T16:21:43.828Z,4.35
2022-12-11T16:24:19.518Z,3.50
2022-12-11T16:26:55.925Z,3.92
2022-12-11T16:29:32.065Z,4.22
2022-12-11T16:32:08.968Z,4.07
2022-12-11T16:34:43.967Z,4.25
2022-12-11T16:37:19.449Z,3.92
2022-12-11T16:39:55.120Z,3.60
2022-12-11T16:42:32.076Z,4.47
2022-12-11T16:45:10.923Z,4.40
2022-12-11T16:47:46.140Z,3.70
2022-12-11T16:50:22.506Z,4.20
2022-12-11T16:52:58.377Z,3.75
2022-12-11T16:55:33.638Z,3.63
2022-12-11T16:58:11.357Z,3.92
2022-12-11T17:00:47.422Z,3.90
2022-12-11T17:03:23.605Z,3.35
2022-12-11T17:05:59.382Z,3.65
2022-12-11T17:08:34.210Z,3.75
2022-12-11T17:11:11.912Z,3.75
2022-12-11T17:13:49.391Z,3.75
2022-12-11T17:16:27.708Z,3.65
2022-12-11T17:19:03.713Z,4.28
2022-12-11T17:21:39.648Z,4.00
2022-12-11T17:24:15.124Z,4.20
2022-12-11T17:26:50.182Z,4.32
2022-12-11T17:29:27.647Z,3.72
2022-12-11T17:32:04.829Z,4.32
2022-12-11T17:34:40.302Z,4.00
2022-12-11T17:37:15.510Z,4.35
2022-12-11T17:39:51.145Z,4.25
2022-12-11T17:42:26.437Z,4.47
2022-12-11T17:45:03.993Z,4.30
2022-12-11T17:47:39.768Z,4.95
2022-12-11T17:50:15.497Z,3.90
2022-12-11T17:52:51.292Z,3.90
2022-12-11T17:55:27.511Z,3.78
2022-12-11T17:58:03.188Z,3.80
2022-12-11T18:00:40.987Z,3.63
2022-12-11T18:03:17.927Z,3.92
2022-12-11T18:05:54.742Z,3.88
2022-12-11T18:08:31.614Z,3.83
2022-12-11T18:11:10.957Z,3.70
2022-12-11T18:13:47.186Z,3.90
2022-12-11T18:16:26.136Z,4.13
2022-12-11T18:19:02.261Z,4.13
2022-12-11T18:21:37.822Z,4.38
2022-12-11T18:24:14.054Z,4.22
2022-12-11T18:26:50.544Z,3.28
2022-12-11T18:29:25.515Z,3.80
2022-12-11T18:32:02.372Z,3.85
2022-12-11T18:34:38.629Z,4.38
2022-12-11T18:37:17.135Z,4.00
2022-12-11T18:39:52.878Z,4.32
2022-12-11T18:42:33.196Z,4.35
2022-12-11T18:45:09.958Z,4.40
2022-12-11T18:47:48.915Z,4.25
2022-12-11T18:50:24.298Z,4.30
2022-12-11T18:53:00.026Z,4.78
2022-12-11T18:55:36.335Z,4.13
2022-12-11T18:58:12.062Z,4.40
2022-12-11T19:00:48.270Z,4.22
2022-12-11T19:03:26.387Z,4.15
2022-12-11T19:06:03.058Z,4.22
2022-12-11T19:08:38.194Z,4.38
2022-12-11T19:11:13.789Z,4.43
2022-12-11T19:13:52.243Z,3.97
2022-12-11T19:16:28.615Z,4.13
2022-12-11T19:19:06.375Z,3.60
2022-12-11T19:21:42.442Z,3.40
2022-12-11T19:24:20.155Z,3.60
2022-12-11T19:26:56.106Z,3.58
2022-12-11T19:29:34.089Z,3.35
2022-12-11T19:32:10.197Z,3.67
2022-12-11T19:34:47.543Z,4.28
2022-12-11T19:37:24.439Z,3.35
2022-12-11T19:40:00.498Z,3.58
2022-12-11T19:42:35.410Z,3.50
2022-12-11T19:45:11.150Z,3.67
2022-12-11T19:47:47.154Z,3.33
2022-12-11T19:50:25.048Z,3.45
2022-12-11T19:53:00.898Z,3.47
2022-12-11T19:55:35.799Z,4.00
2022-12-11T19:58:11.884Z,4.90
2022-12-11T20:00:47.688Z,4.00
2022-12-11T20:03:23.568Z,4.00
2022-12-11T20:06:04.857Z,3.53
2022-12-11T20:08:45.295Z,3.30
2022-12-11T20:11:21.460Z,3.22
2022-12-11T20:13:57.255Z,2.90
2022-12-11T20:17:09.266Z,3.20
2022-12-11T20:19:28.361Z,3.15
2022-12-11T20:22:05.585Z,3.10
2022-12-11T20:24:40.697Z,3.40
2022-12-11T20:27:16.163Z,3.00
2022-12-11T20:29:51.271Z,2.90
2022-12-11T20:32:27.582Z,3.05
2022-12-11T20:35:02.973Z,2.60
2022-12-11T20:37:41.006Z,2.70
2022-12-11T20:40:18.690Z,2.67
2022-12-11T20:42:55.445Z,2.40
2022-12-11T20:45:31.857Z,2.40
2022-12-11T20:48:07.522Z,2.53
2022-12-11T20:50:42.901Z,2.83
2022-12-11T20:53:20.956Z,2.85
2022-12-11T20:55:56.119Z,2.83
2022-12-11T20:58:31.546Z,2.53
2022-12-11T21:01:07.436Z,2.13
2022-12-11T21:03:43.357Z,2.63
2022-12-11T21:06:23.913Z,2.60
2022-12-11T21:09:01.530Z,2.30
2022-12-11T21:11:38.094Z,2.85
2022-12-11T21:14:13.982Z,1.50
2022-12-11T21:16:50.992Z,2.45
2022-12-11T21:19:27.409Z,2.30
2022-12-11T21:22:03.731Z,1.85
2022-12-11T21:24:43.531Z,1.80
2022-12-11T21:27:20.279Z,1.80
2022-12-11T21:29:56.303Z,1.30
2022-12-11T21:32:34.004Z,1.77
2022-12-11T21:35:11.043Z,1.63
2022-12-11T21:37:47.683Z,1.70
2022-12-11T21:40:26.249Z,1.50
2022-12-11T21:43:02.902Z,1.60
2022-12-11T21:48:38.442Z,1.50
2022-12-11T21:51:15.952Z,1.73
2022-12-11T21:53:51.765Z,1.42
2022-12-11T21:56:33.570Z,1.50
2022-12-11T21:59:09.783Z,1.60
2022-12-11T22:01:48.783Z,1.75
2022-12-11T22:04:25.471Z,1.60
2022-12-11T22:07:02.528Z,1.50
2022-12-11T22:09:38.664Z,1.73
2022-12-11T22:12:20.038Z,1.60
2022-12-11T22:14:57.701Z,1.80
2022-12-11T22:17:34.787Z,1.60
2022-12-11T22:20:11.755Z,1.63
2022-12-11T22:22:48.582Z,1.80
2022-12-11T22:25:25.524Z,1.95
2022-12-11T22:28:03.363Z,2.00
2022-12-11T22:30:40.164Z,1.90
2022-12-11T22:33:16.082Z,1.95
2022-12-11T22:35:52.686Z,2.10
2022-12-11T22:38:29.003Z,1.90
2022-12-11T22:41:06.291Z,1.92
2022-12-11T22:43:43.553Z,1.90
2022-12-11T22:46:22.483Z,2.08
2022-12-11T22:48:59.328Z,1.98
2022-12-11T22:51:34.813Z,2.10
2022-12-11T22:54:10.523Z,2.47
2022-12-11T22:56:47.367Z,1.88
2022-12-11T22:59:26.317Z,2.17
2022-12-11T23:02:02.710Z,2.13
2022-12-11T23:04:38.318Z,2.20
2022-12-11T23:07:15.248Z,2.20
2022-12-11T23:09:51.981Z,2.20
2022-12-11T23:12:27.605Z,2.00
2022-12-11T23:15:05.280Z,2.20
2022-12-11T23:17:42.364Z,2.20
2022-12-11T23:20:19.134Z,2.30
2022-12-11T23:22:55.431Z,2.05
2022-12-11T23:25:30.939Z,2.20
2022-12-11T23:28:06.698Z,2.50
2022-12-11T23:30:45.433Z,1.95
2022-12-11T23:33:22.526Z,2.00
2022-12-11T23:35:58.644Z,2.42
2022-12-11T23:38:34.883Z,2.20
2022-12-11T23:41:13.996Z,2.40
2022-12-11T23:43:50.131Z,2.20
2022-12-11T23:46:31.523Z,1.98
2022-12-11T23:49:09.316Z,2.20
2022-12-11T23:51:45.903Z,3.90
2022-12-11T23:54:22.249Z,3.67
2022-12-11T23:56:57.863Z,2.70
2022-12-11T23:59:33.891Z,1.92
